Altoona, Pennsylvania
Current Conditions -  °F | °C
As of 6:53 PM on Wednesday 17 Dec 2014 (Local Time) from KAOO Reporting Station
Overcast Overcast  
Wind Chill: 22°   Ceiling: 2700
Heat Index: 32°   Visibility: 10mi
Dew Point: 23°   Wind: 14mph
Humidity: 69%   Direction: 300°WNW
Pressure: 30.02"   Gusts: 26mph
Location:  40.51°N, 78.4°W
Report Text: KAOO 172353Z AUTO 30012G23KT 10SM OVC027 00/M05 A3002 RMK AO2 PK WND 28028/2318 SLP177 60000 T00001050 10022 20000 53010
Loading
Personal Weather Stations






























Interactive Weather Map New forecast layout! Learn more

10-Day Weather Forecast

Advertisements
Track Severe Weather on mobile